Time;durP1;ratioP1;P1;durP2;ratioP2;P2;SDS_P1;SDS_P2;PMS_P1;PMS_P2;Temp;Humidity;BMP_temperature;BMP_pressure;BME280_temperature;BME280_humidity;BME280_pressure;Samples;Min_cycle;Max_cycle;Signal;HPM_P1;HPM_P2
2022/07/26 00:00:15;;;;;;;7.95;2.38;;;;;;;18.50;97.88;101208.81;4981770;28;20145;-66
2022/07/26 00:02:41;;;;;;;21.67;4.57;;;;;;;18.40;98.14;101207.94;4980145;28;20038;-66
2022/07/26 00:05:08;;;;;;;15.60;3.45;;;;;;;18.44;98.26;101211.22;4982086;28;20050;-66
2022/07/26 00:07:33;;;;;;;11.60;2.92;;;;;;;18.49;97.36;101207.13;4981934;28;20097;-65
2022/07/26 00:10:02;;;;;;;10.05;2.90;;;;;;;18.48;97.67;101208.13;4982119;28;20053;-66
2022/07/26 00:12:28;;;;;;;9.68;3.13;;;;;;;18.62;96.53;101212.25;4980510;28;20053;-66
2022/07/26 00:14:53;;;;;;;16.23;2.83;;;;;;;18.64;97.04;101216.53;4989991;28;20050;-66
2022/07/26 00:17:19;;;;;;;10.88;3.03;;;;;;;18.49;97.30;101211.66;5000516;28;20096;-66
2022/07/26 00:19:44;;;;;;;9.20;3.13;;;;;;;18.63;97.37;101211.28;5000702;28;20033;-66
2022/07/26 00:24:54;;;;;;;9.40;2.55;;;;;;;18.43;98.22;101209.53;4997865;28;20053;-66
2022/07/26 00:27:19;;;;;;;12.02;2.38;;;;;;;18.48;97.65;101208.13;4963676;28;20042;-65
2022/07/26 00:29:45;;;;;;;12.02;3.10;;;;;;;18.50;97.17;101208.81;4981410;28;20042;-65
2022/07/26 00:32:10;;;;;;;9.02;2.60;;;;;;;18.49;96.63;101220.63;4980925;28;20054;-65
2022/07/26 00:34:36;;;;;;;11.48;2.90;;;;;;;18.51;97.12;101220.47;4979658;28;20073;-65
2022/07/26 00:37:01;;;;;;;9.93;1.77;;;;;;;18.35;97.23;101221.84;4980914;28;20052;-65
2022/07/26 00:39:27;;;;;;;13.07;2.67;;;;;;;18.37;97.29;101224.41;4981372;28;20058;-65
2022/07/26 00:41:53;;;;;;;9.25;2.00;;;;;;;18.52;95.61;101225.72;4980938;28;20034;-65
2022/07/26 00:44:18;;;;;;;5.97;2.05;;;;;;;18.54;95.64;101214.81;4997903;28;20832;-65
2022/07/26 00:46:44;;;;;;;8.48;2.10;;;;;;;18.46;95.78;101228.13;5000797;28;20037;-65
2022/07/26 00:49:10;;;;;;;8.73;2.40;;;;;;;18.51;96.06;101215.06;5000476;28;20483;-65
2022/07/26 00:51:36;;;;;;;9.23;2.00;;;;;;;18.57;95.85;101218.06;5000309;28;20703;-65
2022/07/26 00:54:03;;;;;;;12.63;3.17;;;;;;;18.53;95.63;101216.66;5000503;28;20050;-66
2022/07/26 00:56:30;;;;;;;6.90;2.20;;;;;;;18.44;95.73;101217.47;5000481;28;20048;-65
2022/07/26 00:58:55;;;;;;;7.95;2.42;;;;;;;18.54;96.28;101220.22;5000317;28;20065;-65
2022/07/26 01:01:21;;;;;;;12.50;2.70;;;;;;;18.46;95.75;101233.53;4998997;28;20061;-65
2022/07/26 01:03:50;;;;;;;7.15;1.95;;;;;;;18.43;96.14;101223.03;5000365;28;20049;-65
2022/07/26 01:06:16;;;;;;;7.47;1.92;;;;;;;18.38;95.65;101229.69;5000050;28;20112;-65
2022/07/26 01:08:41;;;;;;;8.80;2.50;;;;;;;18.43;95.94;101225.72;4998313;28;21021;-65
2022/07/26 01:11:07;;;;;;;8.77;2.47;;;;;;;18.48;95.47;101220.78;5000363;28;20050;-65
2022/07/26 01:13:35;;;;;;;7.13;2.20;;;;;;;18.37;96.19;101219.00;5000206;28;20044;-66
2022/07/26 01:16:01;;;;;;;7.88;2.88;;;;;;;18.41;95.88;101217.75;4982086;28;20042;-67
2022/07/26 01:18:27;;;;;;;15.02;2.10;;;;;;;18.42;95.72;101222.16;4980760;28;20585;-65
2022/07/26 01:20:53;;;;;;;7.90;2.33;;;;;;;18.42;95.96;101215.91;4980536;28;20038;-66
2022/07/26 01:23:18;;;;;;;7.95;2.28;;;;;;;18.41;96.26;101204.25;4979127;28;20054;-65
2022/07/26 01:25:44;;;;;;;10.18;2.63;;;;;;;18.48;95.89;101207.25;4990478;28;20042;-66
2022/07/26 01:28:09;;;;;;;9.23;1.98;;;;;;;18.44;96.19;101209.38;4998687;28;20391;-65
2022/07/26 01:30:35;;;;;;;8.55;2.97;;;;;;;18.40;97.01;101207.94;5000430;28;20474;-65
2022/07/26 01:33:00;;;;;;;16.40;2.80;;;;;;;18.40;96.87;101209.78;4999592;28;20042;-66
2022/07/26 01:35:26;;;;;;;14.50;2.63;;;;;;;18.45;96.67;101207.53;4999492;28;20048;-67
2022/07/26 01:37:52;;;;;;;13.75;2.60;;;;;;;18.53;97.14;101200.44;4999279;28;20038;-67
2022/07/26 01:40:17;;;;;;;9.18;2.95;;;;;;;18.52;96.45;101206.81;4999143;28;20041;-67
2022/07/26 01:42:45;;;;;;;9.38;2.65;;;;;;;18.41;97.76;101198.84;4999096;28;20573;-67
2022/07/26 01:45:11;;;;;;;12.27;2.95;;;;;;;18.45;97.49;101205.69;4997319;28;20037;-67
2022/07/26 01:47:38;;;;;;;11.32;2.50;;;;;;;18.45;97.53;101205.69;4999504;28;20920;-67
2022/07/26 01:50:06;;;;;;;11.20;2.72;;;;;;;18.51;97.55;101207.81;5000583;28;20050;-67
2022/07/26 01:52:33;;;;;;;12.45;2.60;;;;;;;18.47;97.94;101208.22;5003565;28;20046;-67
2022/07/26 01:54:58;;;;;;;11.80;4.05;;;;;;;18.46;97.96;101201.13;5003015;28;20038;-67
2022/07/26 01:57:24;;;;;;;17.17;2.90;;;;;;;18.37;98.75;101205.50;5003187;28;20041;-66
2022/07/26 01:59:49;;;;;;;8.77;2.83;;;;;;;18.45;98.57;101207.53;5003100;28;20490;-66
2022/07/26 02:02:15;;;;;;;10.32;2.92;;;;;;;18.40;99.17;101212.50;5003097;28;20391;-67
2022/07/26 02:04:57;;;;;;;8.52;2.80;;;;;;;18.40;99.46;101215.19;5003022;28;20046;-67
2022/07/26 02:07:38;;;;;;;12.38;2.70;;;;;;;18.38;100.00;101216.19;5002972;28;20589;-67
2022/07/26 02:10:14;;;;;;;9.63;2.80;;;;;;;18.37;100.00;101221.72;5001576;28;20060;-67
2022/07/26 02:12:39;;;;;;;13.15;2.78;;;;;;;18.40;99.98;101220.59;5002958;28;20037;-67
2022/07/26 02:15:09;;;;;;;13.07;2.92;;;;;;;18.36;100.00;101225.41;5003007;28;20517;-67
2022/07/26 02:17:38;;;;;;;13.38;2.95;;;;;;;18.34;100.00;101219.31;5003249;28;20153;-67
2022/07/26 02:20:08;;;;;;;9.30;3.42;;;;;;;18.34;100.00;101222.84;5003440;28;20092;-67
2022/07/26 02:22:33;;;;;;;11.93;3.08;;;;;;;18.31;100.00;101216.88;5003011;28;20042;-67
2022/07/26 02:25:02;;;;;;;14.50;3.42;;;;;;;18.28;100.00;101215.31;5001159;28;20088;-67
2022/07/26 02:27:28;;;;;;;14.13;3.15;;;;;;;18.32;100.00;101219.47;5003061;28;20046;-67
2022/07/26 02:29:54;;;;;;;12.07;3.53;;;;;;;18.32;100.00;101221.28;5003166;28;20057;-67
2022/07/26 02:32:19;;;;;;;17.90;3.08;;;;;;;18.25;100.00;101217.44;5003432;28;20042;-67
2022/07/26 02:34:45;;;;;;;13.55;3.00;;;;;;;18.25;100.00;101217.44;5002747;28;20038;-66
2022/07/26 02:37:10;;;;;;;10.73;3.00;;;;;;;18.25;100.00;101222.84;5002009;28;20041;-67
2022/07/26 02:39:36;;;;;;;12.75;3.40;;;;;;;18.18;100.00;101221.69;5001745;28;20490;-67
2022/07/26 02:42:02;;;;;;;14.70;3.25;;;;;;;18.19;100.00;101228.78;5002075;28;20979;-66
2022/07/26 02:44:29;;;;;;;12.77;3.28;;;;;;;18.17;100.00;101226.19;5003462;28;20243;-67
2022/07/26 02:46:55;;;;;;;19.40;3.72;;;;;;;18.14;100.00;101222.94;5000762;28;20050;-67
2022/07/26 02:49:21;;;;;;;16.38;3.35;;;;;;;18.15;100.00;101228.19;5002924;28;20053;-67
2022/07/26 02:51:46;;;;;;;10.70;2.80;;;;;;;18.11;100.00;101230.31;5002930;28;20037;-66
2022/07/26 02:54:13;;;;;;;12.05;3.28;;;;;;;18.12;100.00;101225.75;5000515;28;20045;-66
2022/07/26 02:56:39;;;;;;;16.50;3.85;;;;;;;18.17;100.00;101230.75;5002262;28;20115;-66
2022/07/26 02:59:05;;;;;;;11.20;3.33;;;;;;;18.14;100.00;101226.50;5002282;28;20045;-67
2022/07/26 03:01:30;;;;;;;9.85;3.20;;;;;;;18.14;100.00;101233.75;5001261;28;20072;-66
2022/07/26 03:03:56;;;;;;;14.55;4.20;;;;;;;18.11;100.00;101234.84;5001708;28;20096;-66
2022/07/26 03:06:22;;;;;;;12.48;4.40;;;;;;;18.13;100.00;101234.75;5000844;28;20041;-66
2022/07/26 03:08:48;;;;;;;8.52;3.47;;;;;;;18.12;100.00;101233.84;4984614;28;20042;-66
2022/07/26 03:11:14;;;;;;;9.10;3.95;;;;;;;18.16;100.00;101240.69;5002000;28;20856;-66
2022/07/26 03:13:39;;;;;;;12.05;4.40;;;;;;;18.09;100.00;101245.78;5002195;28;20049;-66
2022/07/26 03:16:06;;;;;;;15.23;4.82;;;;;;;18.12;100.00;101241.94;5001702;28;20045;-66
2022/07/26 03:18:32;;;;;;;16.10;4.95;;;;;;;18.09;100.00;101247.63;5002380;28;20108;-66
2022/07/26 03:20:58;;;;;;;12.00;3.80;;;;;;;18.10;100.00;101246.66;5002291;28;20548;-66
2022/07/26 03:23:24;;;;;;;9.98;3.75;;;;;;;18.18;100.00;101248.69;5001663;28;20061;-67
2022/07/26 03:25:49;;;;;;;9.88;3.92;;;;;;;18.13;100.00;101257.19;5000912;28;20049;-66
2022/07/26 03:28:15;;;;;;;9.48;3.35;;;;;;;18.19;100.00;101261.19;5001472;28;20046;-67
2022/07/26 03:30:40;;;;;;;13.32;4.13;;;;;;;18.20;100.00;101260.19;4983978;28;20116;-66
2022/07/26 03:33:06;;;;;;;8.93;3.90;;;;;;;18.19;100.00;101262.03;5001529;28;20516;-67
2022/07/26 03:35:31;;;;;;;11.27;4.05;;;;;;;18.15;100.00;101273.22;5001265;28;20041;-68
2022/07/26 03:37:57;;;;;;;10.10;3.35;;;;;;;18.14;100.00;101272.38;5000854;28;20045;-67
2022/07/26 03:40:22;;;;;;;9.93;3.30;;;;;;;18.11;100.00;101270.78;5000810;28;20045;-67
2022/07/26 03:42:48;;;;;;;10.88;4.28;;;;;;;18.12;100.00;101271.66;5000569;28;20269;-67
2022/07/26 03:45:14;;;;;;;6.70;3.55;;;;;;;18.10;100.00;101271.78;5002062;28;20046;-66
2022/07/26 03:47:40;;;;;;;9.18;3.83;;;;;;;18.10;100.00;101276.34;5001986;28;20045;-66
2022/07/26 03:50:07;;;;;;;8.43;3.00;;;;;;;18.18;100.00;101283.78;5000092;28;20124;-66
2022/07/26 03:52:33;;;;;;;10.18;3.28;;;;;;;18.13;100.00;101278.78;5000601;28;20569;-67
2022/07/26 03:54:58;;;;;;;12.40;3.83;;;;;;;18.08;100.00;101279.19;5002016;28;20088;-67
2022/07/26 03:57:24;;;;;;;11.05;3.15;;;;;;;18.10;100.00;101279.03;5002124;28;20038;-67
2022/07/26 03:59:49;;;;;;;9.20;3.67;;;;;;;18.21;100.00;101281.63;5001706;28;20854;-67
2022/07/26 04:02:15;;;;;;;6.88;3.25;;;;;;;18.18;100.00;101281.94;5002002;28;20109;-67
2022/07/26 04:04:41;;;;;;;13.48;4.15;;;;;;;18.12;100.00;101277.03;5000076;28;20034;-67
2022/07/26 04:07:06;;;;;;;13.93;4.20;;;;;;;18.01;100.00;101277.13;5001679;28;20042;-67
2022/07/26 04:09:34;;;;;;;11.43;4.40;;;;;;;18.04;100.00;101282.28;5001848;28;20123;-66
2022/07/26 04:12:00;;;;;;;15.00;4.25;;;;;;;18.04;100.00;101282.28;5001330;28;20037;-67
2022/07/26 04:14:25;;;;;;;10.73;4.28;;;;;;;18.16;100.00;101286.59;4997160;28;20045;-67
2022/07/26 04:16:53;;;;;;;9.27;4.05;;;;;;;18.16;100.00;101293.84;4982431;28;20053;-67
2022/07/26 04:19:19;;;;;;;12.15;4.10;;;;;;;18.20;100.00;101297.97;4980738;28;20526;-67
2022/07/26 04:21:44;;;;;;;11.02;4.03;;;;;;;18.19;100.00;101297.13;4982563;28;20038;-67
2022/07/26 04:24:10;;;;;;;13.52;4.18;;;;;;;18.22;100.00;101304.09;4983132;28;20053;-66
2022/07/26 04:26:36;;;;;;;13.20;4.15;;;;;;;18.23;100.00;101306.66;4984284;28;20038;-67
2022/07/26 04:29:01;;;;;;;13.02;4.65;;;;;;;18.16;100.00;101300.09;5000796;28;20041;-67
2022/07/26 04:31:26;;;;;;;10.10;4.00;;;;;;;18.11;100.00;101300.47;5001586;28;20512;-67
2022/07/26 04:33:52;;;;;;;12.55;4.47;;;;;;;18.24;100.00;101299.41;5000121;28;20088;-67
2022/07/26 04:36:20;;;;;;;14.00;3.70;;;;;;;18.28;100.00;101307.13;5001257;28;20041;-67
2022/07/26 04:38:45;;;;;;;14.32;4.65;;;;;;;18.38;100.00;101304.47;5001133;28;20069;-67
2022/07/26 04:41:11;;;;;;;12.75;4.22;;;;;;;18.50;100.00;101307.91;4999378;28;20136;-67
2022/07/26 04:43:36;;;;;;;14.52;5.22;;;;;;;18.54;100.00;101318.28;4999610;28;20050;-67
2022/07/26 04:46:02;;;;;;;7.93;3.83;;;;;;;18.58;100.00;101308.94;5000681;28;20042;-67
2022/07/26 04:48:27;;;;;;;13.20;3.97;;;;;;;18.63;100.00;101312.06;5001021;28;20033;-67
2022/07/26 04:50:53;;;;;;;12.75;4.35;;;;;;;18.56;100.00;101318.16;5000572;28;20068;-67
2022/07/26 04:53:19;;;;;;;13.68;5.20;;;;;;;18.50;100.00;101316.84;5000458;28;20093;-67
2022/07/26 04:55:44;;;;;;;14.20;4.50;;;;;;;18.66;100.00;101319.03;4998844;28;20125;-67
2022/07/26 04:58:10;;;;;;;18.73;5.43;;;;;;;18.79;100.00;101318.81;5001610;28;20046;-67
2022/07/26 05:00:37;;;;;;;12.35;4.20;;;;;;;19.33;100.00;101318.31;5001438;28;20049;-67
2022/07/26 05:03:03;;;;;;;18.27;5.05;;;;;;;19.14;100.00;101313.75;5000495;28;20049;-67
2022/07/26 05:05:30;;;;;;;10.60;3.58;;;;;;;19.70;100.00;101314.91;4997882;28;20066;-67
2022/07/26 05:08:00;;;;;;;12.15;4.38;;;;;;;20.20;97.09;101303.78;4998186;28;20056;-69
2022/07/26 05:10:31;;;;;;;13.98;4.20;;;;;;;19.52;100.00;101312.03;5000512;28;20044;-65
2022/07/26 05:12:56;;;;;;;11.93;3.80;;;;;;;19.47;100.00;101318.88;5003496;28;20084;-65
2022/07/26 05:15:22;;;;;;;10.55;3.72;;;;;;;19.74;100.00;101321.75;5001634;28;20037;-65
2022/07/26 05:17:47;;;;;;;10.63;3.83;;;;;;;20.25;96.78;101320.44;5003790;28;20049;-66
2022/07/26 05:20:15;;;;;;;9.23;3.35;;;;;;;20.37;95.98;101324.66;5003732;28;20049;-66
2022/07/26 05:22:41;;;;;;;11.20;4.68;;;;;;;19.76;98.77;101344.09;5002311;28;20558;-66
2022/07/26 05:25:07;;;;;;;12.48;3.72;;;;;;;19.90;99.10;101338.22;5002162;28;20096;-66
2022/07/26 05:27:33;;;;;;;13.88;4.45;;;;;;;19.99;99.39;101341.06;5002580;28;20045;-66
2022/07/26 05:29:58;;;;;;;12.63;4.63;;;;;;;20.09;97.43;101340.03;5001734;28;20056;-66
2022/07/26 05:32:23;;;;;;;12.50;4.13;;;;;;;20.14;97.24;101336.88;5002103;28;20049;-72
2022/07/26 05:34:49;;;;;;;10.00;3.83;;;;;;;20.40;95.20;101342.50;5001670;28;20049;-66
2022/07/26 05:37:15;;;;;;;10.40;3.92;;;;;;;20.26;96.28;101338.41;5000707;28;20042;-65
2022/07/26 05:39:40;;;;;;;19.33;4.50;;;;;;;20.40;93.66;101342.50;5000517;28;20255;-66
2022/07/26 05:42:06;;;;;;;11.88;3.72;;;;;;;20.81;91.61;101337.63;4998289;28;20509;-66
2022/07/26 05:44:31;;;;;;;12.43;4.82;;;;;;;20.50;91.22;101347.91;4996686;28;20045;-65
2022/07/26 05:46:57;;;;;;;13.68;3.90;;;;;;;20.75;91.76;101347.22;4998743;28;20034;-65
2022/07/26 05:49:22;;;;;;;15.48;3.50;;;;;;;20.68;91.18;101336.13;5003662;28;20108;-66
2022/07/26 05:51:48;;;;;;;13.63;4.15;;;;;;;21.34;87.42;101345.00;5004055;28;20632;-66
2022/07/26 05:54:13;;;;;;;14.93;3.08;;;;;;;21.82;84.13;101349.97;5004678;28;20046;-65
2022/07/26 05:56:38;;;;;;;6.93;2.72;;;;;;;21.93;82.06;101346.16;5003742;28;20050;-66
2022/07/26 05:59:04;;;;;;;10.55;3.15;;;;;;;22.23;80.76;101342.13;5003261;28;20042;-66
2022/07/26 06:01:31;;;;;;;8.82;3.13;;;;;;;22.24;82.36;101352.03;5003668;28;20081;-66
2022/07/26 06:03:59;;;;;;;11.02;2.90;;;;;;;22.04;82.75;101353.19;5004599;28;20038;-66
2022/07/26 06:06:25;;;;;;;12.32;3.42;;;;;;;21.81;82.70;101361.00;5002611;28;20042;-66
2022/07/26 06:08:50;;;;;;;14.05;3.65;;;;;;;21.21;85.67;101361.63;5003097;28;20046;-65
2022/07/26 06:11:16;;;;;;;11.48;3.42;;;;;;;21.10;87.42;101368.13;5006215;28;20048;-65
2022/07/26 06:13:41;;;;;;;15.25;2.85;;;;;;;21.92;83.58;101366.19;5006342;28;20574;-66
2022/07/26 06:16:07;;;;;;;10.35;3.47;;;;;;;22.40;79.52;101362.13;4987230;28;20034;-65
2022/07/26 06:18:33;;;;;;;11.57;3.33;;;;;;;21.60;83.34;101373.06;5006525;28;20740;-66
2022/07/26 06:20:58;;;;;;;14.85;3.22;;;;;;;21.40;84.89;101374.22;5005388;28;20037;-66
2022/07/26 06:23:24;;;;;;;8.60;2.72;;;;;;;22.11;82.26;101370.59;5004838;28;20084;-66
2022/07/26 06:25:49;;;;;;;8.45;3.13;;;;;;;22.62;77.58;101369.69;5004415;28;20046;-66
2022/07/26 06:28:15;;;;;;;10.23;2.70;;;;;;;22.37;78.41;101373.31;5002739;28;20708;-66
2022/07/26 06:30:43;;;;;;;10.48;2.78;;;;;;;23.42;75.12;101367.41;5002254;28;20483;-66
2022/07/26 06:33:09;;;;;;;9.40;2.65;;;;;;;23.21;73.15;101376.06;5002759;28;20065;-66
2022/07/26 06:35:37;;;;;;;10.38;2.35;;;;;;;24.34;71.26;101364.47;5004049;28;20092;-66
2022/07/26 06:38:03;;;;;;;6.97;2.08;;;;;;;24.16;68.71;101370.16;5008995;28;20125;-66
2022/07/26 06:40:28;;;;;;;7.07;2.22;;;;;;;24.10;69.94;101373.56;5009381;28;20072;-66
2022/07/26 06:42:53;;;;;;;7.18;1.92;;;;;;;23.31;70.74;101380.50;5011063;28;20123;-66
2022/07/26 06:45:19;;;;;;;4.57;2.22;;;;;;;23.13;72.17;101383.34;5010080;28;20046;-66
2022/07/26 06:47:45;;;;;;;6.18;2.38;;;;;;;22.65;72.53;101382.13;5010275;28;20052;-66
2022/07/26 06:50:10;;;;;;;4.05;2.22;;;;;;;23.04;72.74;101378.88;5008465;28;20038;-66
2022/07/26 06:52:36;;;;;;;9.32;2.03;;;;;;;22.31;76.80;101377.53;5008359;28;20057;-65
2022/07/26 06:55:04;;;;;;;6.03;2.30;;;;;;;22.41;75.92;101377.41;5009513;28;20506;-65
2022/07/26 06:57:29;;;;;;;6.05;2.00;;;;;;;22.39;75.30;101380.31;5008710;28;20403;-65
2022/07/26 06:59:55;;;;;;;4.38;2.40;;;;;;;22.11;76.47;101389.63;5009091;28;20108;-66
2022/07/26 07:02:20;;;;;;;6.18;1.98;;;;;;;21.89;77.57;101383.66;5008547;28;20387;-65
2022/07/26 07:04:45;;;;;;;6.70;1.90;;;;;;;21.80;80.57;101390.03;5009729;28;20557;-65
2022/07/26 07:07:11;;;;;;;3.05;1.60;;;;;;;21.57;80.15;101388.78;5009783;28;20111;-66
2022/07/26 07:09:38;;;;;;;3.70;2.22;;;;;;;21.51;80.37;101392.97;5007933;28;20044;-65
2022/07/26 07:12:05;;;;;;;11.13;2.03;;;;;;;21.80;81.70;101400.03;5007976;28;20048;-65
2022/07/26 07:14:30;;;;;;;6.80;1.83;;;;;;;21.51;81.00;101405.72;5007656;28;20724;-67
2022/07/26 07:16:56;;;;;;;4.47;2.28;;;;;;;21.46;80.53;101406.16;5010166;28;20034;-66
2022/07/26 07:19:23;;;;;;;5.82;2.25;;;;;;;21.67;78.78;101398.56;5009775;28;20040;-66
2022/07/26 07:21:48;;;;;;;10.38;2.22;;;;;;;21.58;80.10;101406.78;5009560;28;20069;-65
2022/07/26 07:24:14;;;;;;;4.57;2.00;;;;;;;21.58;81.40;101413.06;5008720;28;20056;-65
2022/07/26 07:26:40;;;;;;;4.03;1.75;;;;;;;21.55;80.67;101421.53;4995006;28;20034;-65
2022/07/26 07:29:08;;;;;;;4.10;1.70;;;;;;;21.97;81.07;101418.16;4989600;28;20785;-65
2022/07/26 07:31:34;;;;;;;4.70;2.08;;;;;;;21.95;83.71;101423.75;4989228;28;20050;-65
2022/07/26 07:33:59;;;;;;;7.55;1.83;;;;;;;21.55;82.96;101424.25;4989217;28;20038;-65
2022/07/26 07:36:25;;;;;;;7.68;1.90;;;;;;;21.88;84.76;101428.09;4991643;28;20042;-65
2022/07/26 07:38:53;;;;;;;3.70;2.03;;;;;;;22.04;84.87;101424.69;4990698;28;20049;-65
2022/07/26 07:41:19;;;;;;;4.97;1.98;;;;;;;21.79;85.41;101426.34;4989652;28;20040;-66
2022/07/26 07:43:45;;;;;;;3.80;1.85;;;;;;;21.76;83.85;101434.78;4991070;28;20038;-66
2022/07/26 07:46:11;;;;;;;2.63;2.22;;;;;;;20.88;92.50;101431.75;4992881;28;20793;-66
2022/07/26 07:48:39;;;;;;;5.55;2.70;;;;;;;20.35;100.00;101445.88;4994216;28;20062;-66
2022/07/26 07:51:05;;;;;;;4.32;3.03;;;;;;;19.24;100.00;101448.97;4992540;28;20171;-67
2022/07/26 07:53:31;;;;;;;5.05;3.55;;;;;;;18.76;100.00;101455.03;4990257;28;20109;-67
2022/07/26 07:55:56;;;;;;;3.50;2.60;;;;;;;18.06;100.00;101461.13;4982353;28;20574;-67
2022/07/26 07:58:22;;;;;;;11.88;3.20;;;;;;;17.30;100.00;101474.59;4983222;28;20035;-68
2022/07/26 08:00:47;;;;;;;5.57;1.85;;;;;;;16.31;100.00;101477.09;4985674;28;20069;-67
2022/07/26 08:03:13;;;;;;;2.55;1.60;;;;;;;16.11;100.00;101484.00;4983257;28;20045;-68
2022/07/26 08:05:39;;;;;;;1.98;1.70;;;;;;;15.93;100.00;101491.66;4983760;28;20038;-67
2022/07/26 08:08:04;;;;;;;6.80;2.00;;;;;;;16.39;100.00;101488.13;4983987;28;20054;-67
2022/07/26 08:10:30;;;;;;;7.63;2.58;;;;;;;16.67;100.00;101499.47;4984454;28;20045;-67
2022/07/26 08:12:56;;;;;;;8.93;2.33;;;;;;;16.86;100.00;101498.88;4985657;28;20065;-67
2022/07/26 08:15:22;;;;;;;8.40;2.95;;;;;;;16.95;100.00;101503.53;4998016;28;20045;-67
2022/07/26 08:17:48;;;;;;;6.32;2.70;;;;;;;16.92;100.00;101510.03;5004167;28;20073;-68
2022/07/26 08:20:14;;;;;;;11.38;3.17;;;;;;;16.78;100.00;101510.25;5001902;28;20050;-67
2022/07/26 08:22:40;;;;;;;5.00;2.80;;;;;;;16.82;100.00;101512.59;5001791;28;20048;-67
2022/07/26 08:25:06;;;;;;;14.55;4.13;;;;;;;17.05;100.00;101504.50;5003554;28;20049;-67
2022/07/26 08:27:31;;;;;;;9.52;4.15;;;;;;;17.23;100.00;101521.06;5003761;28;20906;-68
2022/07/26 08:29:57;;;;;;;9.55;3.13;;;;;;;17.20;100.00;101515.91;5001975;28;20120;-67
2022/07/26 08:32:22;;;;;;;7.45;3.15;;;;;;;17.08;100.00;101515.91;5003179;28;20056;-67
2022/07/26 08:34:47;;;;;;;6.78;2.90;;;;;;;17.04;100.00;101530.59;5003749;28;20042;-67
2022/07/26 08:37:13;;;;;;;8.20;3.05;;;;;;;17.02;100.00;101537.97;5003453;28;20556;-67
2022/07/26 08:39:38;;;;;;;9.48;3.15;;;;;;;17.20;100.00;101530.22;5002352;28;20050;-67
2022/07/26 08:42:12;;;;;;;7.55;2.45;;;;;;;17.22;100.00;101535.50;5001869;28;20048;-67
2022/07/26 08:44:41;;;;;;;6.68;2.47;;;;;;;17.58;100.00;101534.38;5002860;28;20068;-67
2022/07/26 08:47:09;;;;;;;4.07;2.28;;;;;;;17.57;100.00;101544.31;5003612;28;20057;-67
2022/07/26 08:49:35;;;;;;;4.90;1.90;;;;;;;17.79;100.00;101538.03;5003811;28;20037;-67
2022/07/26 08:52:01;;;;;;;7.95;2.08;;;;;;;17.70;100.00;101552.22;5002224;28;20048;-67
2022/07/26 08:54:27;;;;;;;9.57;2.35;;;;;;;17.76;100.00;101557.16;5001473;28;20046;-67
2022/07/26 08:56:52;;;;;;;4.13;2.10;;;;;;;17.46;100.00;101551.53;5000554;28;20046;-67
2022/07/26 08:59:19;;;;;;;6.80;2.70;;;;;;;17.46;100.00;101555.09;5002233;28;20045;-67
2022/07/26 09:01:57;;;;;;;8.45;3.22;;;;;;;17.31;100.00;101556.31;5002071;28;20042;-67
2022/07/26 09:04:34;;;;;;;7.53;2.30;;;;;;;17.43;100.00;101562.59;5001291;28;20048;-68
2022/07/26 09:07:06;;;;;;;9.05;2.83;;;;;;;17.74;100.00;101567.22;5001282;28;20042;-67
2022/07/26 09:09:33;;;;;;;8.10;2.40;;;;;;;17.65;100.00;101565.25;4982867;28;20034;-67
2022/07/26 09:12:12;;;;;;;7.22;3.08;;;;;;;17.86;100.00;101560.81;5001657;28;20045;-68
2022/07/26 09:14:38;;;;;;;5.63;2.85;;;;;;;18.17;100.00;101566.34;5001775;28;20041;-67
2022/07/26 09:17:05;;;;;;;5.53;2.88;;;;;;;18.89;100.00;101568.34;5001514;28;20048;-67
2022/07/26 09:19:30;;;;;;;7.82;2.33;;;;;;;19.01;100.00;101563.69;5000393;28;20041;-67
2022/07/26 09:22:11;;;;;;;4.80;2.10;;;;;;;19.27;100.00;101567.66;4999772;28;20045;-67
2022/07/26 09:24:46;;;;;;;6.82;1.95;;;;;;;19.26;100.00;101579.47;5001447;28;20144;-67
2022/07/26 09:27:15;;;;;;;7.35;2.10;;;;;;;19.29;100.00;101581.94;4980472;28;20354;-67
2022/07/26 09:29:45;;;;;;;5.40;1.70;;;;;;;19.82;100.00;101581.69;4981224;28;20038;-67
2022/07/26 09:32:15;;;;;;;5.05;1.92;;;;;;;20.53;100.00;101575.22;4982035;28;20048;-66
2022/07/26 09:34:45;;;;;;;2.97;1.30;;;;;;;19.99;100.00;101582.03;4981766;28;20104;-68
2022/07/26 09:37:11;;;;;;;1.25;1.13;;;;;;;19.62;100.00;101583.50;4981381;28;20053;-67
2022/07/26 09:39:53;;;;;;;3.80;1.08;;;;;;;19.79;99.80;101584.69;4979233;28;20198;-67
2022/07/26 09:42:19;;;;;;;;;;;;;;;20.03;100.00;101581.59;4979332;28;20819;-67
2022/07/26 09:44:44;;;;;;;3.05;0.88;;;;;;;20.12;97.59;101574.47;4980967;28;19996;-67
2022/07/26 09:47:10;;;;;;;1.63;1.02;;;;;;;20.34;95.67;101587.75;4980180;28;20027;-67
2022/07/26 09:49:35;;;;;;;2.42;0.70;;;;;;;20.36;93.84;101585.75;4982773;28;20038;-67
2022/07/26 09:52:01;;;;;;;3.33;0.80;;;;;;;20.12;90.73;101593.44;4983161;28;20038;-67
2022/07/26 09:54:34;;;;;;;6.50;0.80;;;;;;;20.18;90.04;101584.72;4981823;28;20405;-66
2022/07/26 09:57:03;;;;;;;3.45;1.20;;;;;;;20.79;94.20;101597.16;4982936;28;20053;-67
2022/07/26 09:59:29;;;;;;;8.63;1.63;;;;;;;20.38;96.64;101601.84;4981397;28;20602;-67
2022/07/26 10:01:56;;;;;;;5.00;1.73;;;;;;;20.92;91.53;101598.53;4979922;28;20529;-66
2022/07/26 10:04:25;;;;;;;1.25;0.77;;;;;;;21.16;94.88;101605.34;4980045;28;20513;-67
2022/07/26 10:06:51;;;;;;;6.50;1.10;;;;;;;20.61;91.62;101600.59;4980284;28;20057;-67
2022/07/26 10:09:24;;;;;;;4.85;1.10;;;;;;;20.32;93.84;101602.41;4982710;28;20038;-67
2022/07/26 10:11:55;;;;;;;4.63;1.13;;;;;;;19.95;91.75;101607.66;4986716;28;20053;-67
2022/07/26 10:14:50;;;;;;;4.60;1.05;;;;;;;20.44;90.69;101606.72;4988090;28;20191;-67
2022/07/26 10:17:28;;;;;;;3.90;1.05;;;;;;;21.11;85.63;101613.06;5003030;28;20216;-66
2022/07/26 10:19:55;;;;;;;2.75;0.93;;;;;;;20.74;84.68;101613.88;5004911;28;20045;-67
2022/07/26 10:22:25;;;;;;;2.97;0.90;;;;;;;21.25;83.61;101604.47;5003346;28;20038;-66
2022/07/26 10:24:52;;;;;;;3.97;1.58;;;;;;;21.14;91.78;101608.22;5003974;28;20337;-67
2022/07/26 10:27:40;;;;;;;5.25;1.52;;;;;;;22.09;83.52;101607.06;5004876;28;20041;-67
2022/07/26 10:30:21;;;;;;;2.55;1.20;;;;;;;21.62;80.88;101607.19;5003472;28;20570;-66
2022/07/26 10:32:49;;;;;;;2.08;1.20;;;;;;;21.42;83.48;101621.84;5003297;28;20132;-67
2022/07/26 10:35:37;;;;;;;4.32;1.55;;;;;;;21.17;85.74;101626.03;5004707;28;20042;-67
2022/07/26 10:38:09;;;;;;;4.55;1.20;;;;;;;21.05;84.67;101628.06;5002730;28;20038;-66
2022/07/26 10:40:54;;;;;;;4.63;1.40;;;;;;;21.35;86.07;101632.44;5004312;28;20667;-66
2022/07/26 10:43:19;;;;;;;4.47;1.30;;;;;;;20.80;84.79;101640.38;5003338;28;20556;-67
2022/07/26 10:45:45;;;;;;;3.58;1.90;;;;;;;20.88;85.52;101629.69;5002973;28;20046;-66
2022/07/26 10:48:17;;;;;;;2.75;1.10;;;;;;;20.90;84.99;101634.97;5002563;28;20045;-66
2022/07/26 10:50:46;;;;;;;;;;;;;;;20.74;85.09;101637.41;5003787;28;20049;-66
2022/07/26 10:53:22;;;;;;;1.95;1.20;;;;;;;21.09;87.98;101636.78;5003903;28;19927;-66
2022/07/26 10:55:53;;;;;;;3.55;1.52;;;;;;;20.37;86.19;101638.06;5001944;28;20097;-66
2022/07/26 10:58:20;;;;;;;2.90;1.08;;;;;;;19.78;92.38;101657.88;5003914;28;20072;-66
2022/07/26 11:00:54;;;;;;;2.65;1.10;;;;;;;18.87;100.00;101657.66;5003066;28;20045;-66
2022/07/26 11:03:20;;;;;;;2.60;1.33;;;;;;;17.76;100.00;101685.78;5001434;28;20141;-67
2022/07/26 11:05:46;;;;;;;2.60;1.30;;;;;;;17.09;100.00;101682.00;5000346;28;20505;-67
2022/07/26 11:08:14;;;;;;;4.32;2.13;;;;;;;17.04;100.00;101680.66;5002080;28;20080;-68
2022/07/26 11:10:42;;;;;;;4.45;1.77;;;;;;;16.82;100.00;101695.78;5000386;28;20566;-69
2022/07/26 11:13:14;;;;;;;3.17;1.88;;;;;;;17.16;100.00;101695.00;4988374;28;20124;-68
2022/07/26 11:15:42;;;;;;;10.25;2.63;;;;;;;17.54;100.00;101686.63;4995061;28;20140;-68
2022/07/26 11:18:16;;;;;;;8.77;2.13;;;;;;;17.29;100.00;101687.69;4990998;28;20046;-68
2022/07/26 11:20:44;;;;;;;7.60;2.45;;;;;;;17.43;100.00;101687.47;4994340;28;20038;-68